Time;durP1;ratioP1;P1;durP2;ratioP2;P2;SDS_P1;SDS_P2;PMS_P1;PMS_P2;Temp;Humidity;BMP_temperature;BMP_pressure;BME280_temperature;BME280_humidity;BME280_pressure;Samples;Min_cycle;Max_cycle;Signal;HPM_P1;HPM_P2
2021/07/12 00:00:33;;;;;;;8.55;6.88;;;;;;;24.12;51.16;100094.06;5033937;28;20094;-8
2021/07/12 00:03:01;;;;;;;8.40;6.72;;;;;;;24.49;50.77;100125.72;5032693;28;20041;-8
2021/07/12 00:05:28;;;;;;;11.05;7.15;;;;;;;24.29;51.62;100138.47;5016125;28;20056;-8
2021/07/12 00:07:54;;;;;;;9.57;6.22;;;;;;;24.09;52.80;100095.09;5032864;28;20053;-8
2021/07/12 00:10:24;;;;;;;7.80;6.78;;;;;;;24.37;51.32;100113.97;5033747;28;20049;-8
2021/07/12 00:12:51;;;;;;;11.88;6.82;;;;;;;24.28;50.96;100104.69;5033988;28;20410;-8
2021/07/12 00:15:19;;;;;;;7.75;6.35;;;;;;;24.34;51.60;100095.41;5033894;28;20045;-7
2021/07/12 00:17:46;;;;;;;8.18;6.30;;;;;;;24.47;50.54;100109.78;5032715;28;20403;-7
2021/07/12 00:20:13;;;;;;;8.43;5.82;;;;;;;24.48;51.32;100111.47;5032949;28;20564;-8
2021/07/12 00:22:40;;;;;;;7.20;6.35;;;;;;;24.44;50.54;100124.19;5032334;28;20044;-8
2021/07/12 00:25:07;;;;;;;7.85;6.95;;;;;;;24.24;50.57;100121.84;5033454;28;20045;-8
2021/07/12 00:27:35;;;;;;;8.10;6.82;;;;;;;23.98;50.43;100072.66;5033355;28;20041;-8
2021/07/12 00:30:03;;;;;;;8.52;6.05;;;;;;;24.21;52.38;100088.16;5033598;28;20044;-7
2021/07/12 00:32:31;;;;;;;9.00;6.82;;;;;;;24.12;50.07;100083.38;5033004;28;20133;-8
2021/07/12 00:35:06;;;;;;;10.18;7.05;;;;;;;24.09;51.34;100089.75;5033592;28;20506;-7
2021/07/12 00:37:32;;;;;;;;;;;;;;;24.25;50.88;100132.44;5032352;28;20042;-7
2021/07/12 00:39:59;;;;;;;10.18;7.10;;;;;;;23.77;51.32;100094.28;5031940;28;19924;-7
2021/07/12 00:42:25;;;;;;;9.23;6.90;;;;;;;23.70;51.56;100090.22;5015678;28;20550;-7
2021/07/12 00:44:52;;;;;;;9.32;7.22;;;;;;;23.63;51.88;100092.38;5031865;28;20045;-8
2021/07/12 00:47:18;;;;;;;10.57;7.32;;;;;;;23.73;51.50;100084.72;5033594;28;20049;-8
2021/07/12 00:49:45;;;;;;;8.80;5.90;;;;;;;23.99;52.31;100106.38;5033559;28;20127;-8
2021/07/12 00:52:12;;;;;;;9.85;7.20;;;;;;;23.87;51.22;100097.25;5031814;28;20450;-8
2021/07/12 00:54:38;;;;;;;10.32;6.90;;;;;;;24.19;52.30;100146.13;5015423;28;20155;-8
2021/07/12 00:57:06;;;;;;;9.90;6.72;;;;;;;23.70;51.62;100107.13;5032004;28;20525;-8
2021/07/12 00:59:37;;;;;;;8.00;5.90;;;;;;;23.58;54.01;100090.00;5033208;28;20562;-9
2021/07/12 01:02:05;;;;;;;9.15;6.40;;;;;;;23.39;52.04;100094.66;5015377;28;20045;-8
2021/07/12 01:04:34;;;;;;;8.40;5.93;;;;;;;23.43;52.38;100097.06;5032757;28;20462;-9
2021/07/12 01:07:03;;;;;;;10.93;5.88;;;;;;;23.65;52.56;100116.31;5032775;28;20124;-8
2021/07/12 01:09:30;;;;;;;7.50;5.47;;;;;;;23.45;51.94;100088.94;5015096;28;20120;-8
2021/07/12 01:12:27;;;;;;;7.78;5.43;;;;;;;23.85;52.95;100145.41;5015633;28;20449;-8
2021/07/12 01:15:13;;;;;;;10.00;6.15;;;;;;;23.81;52.31;100138.53;5011794;28;20051;-8
2021/07/12 01:18:04;;;;;;;7.05;5.88;;;;;;;23.33;52.84;100087.00;5032633;28;20044;-8
2021/07/12 01:20:45;;;;;;;8.57;6.18;;;;;;;23.57;52.61;100138.09;5031740;28;20041;-8
2021/07/12 01:23:17;;;;;;;10.20;6.55;;;;;;;23.70;52.50;100155.16;5033348;28;20037;-8
2021/07/12 01:26:13;;;;;;;9.32;5.82;;;;;;;23.34;52.91;100124.25;5032744;28;20095;-8
2021/07/12 01:28:57;;;;;;;8.30;6.57;;;;;;;23.24;53.03;100134.53;4979999;28;20527;-9
2021/07/12 01:32:02;;;;;;;7.65;5.95;;;;;;;23.19;54.13;100162.41;5032543;28;20517;-8
2021/07/12 01:35:04;;;;;;;7.28;5.80;;;;;;;23.13;54.04;100168.94;5031177;28;20049;-7
2021/07/12 01:37:49;;;;;;;6.25;5.22;;;;;;;23.06;55.39;100124.84;4990938;28;20054;-7
2021/07/12 01:40:31;;;;;;;7.85;6.13;;;;;;;22.95;54.19;100109.47;4991076;28;20133;-8
2021/07/12 01:43:16;;;;;;;8.32;6.10;;;;;;;22.68;53.71;100091.31;4976547;28;20046;-8
2021/07/12 01:46:08;;;;;;;8.45;5.50;;;;;;;22.98;53.74;100164.41;4979496;28;20046;-7
2021/07/12 01:49:04;;;;;;;10.02;5.97;;;;;;;22.87;54.12;100131.19;4979150;28;20047;-7
2021/07/12 01:51:41;;;;;;;;;;;;;;;23.44;52.80;100167.25;4990374;28;20543;-8
2021/07/12 01:54:32;;;;;;;6.57;5.22;;;;;;;23.65;52.37;100177.69;4978658;28;19918;-8
2021/07/12 01:57:27;;;;;;;6.85;5.50;;;;;;;23.66;53.71;100180.28;4990703;28;20069;-8
2021/07/12 02:00:01;;;;;;;10.32;5.70;;;;;;;23.44;53.25;100109.44;4975664;28;20472;-7
2021/07/12 02:02:53;;;;;;;6.72;5.35;;;;;;;23.58;53.33;100114.00;4975534;28;20158;-8
2021/07/12 02:05:30;;;;;;;7.55;5.68;;;;;;;23.82;52.58;100139.38;4975612;28;20563;-8
2021/07/12 02:08:01;;;;;;;6.68;5.45;;;;;;;23.82;51.73;100126.03;4975265;28;20062;-8
2021/07/12 02:10:32;;;;;;;7.32;5.15;;;;;;;24.19;51.64;100138.13;4975173;28;20069;-7
2021/07/12 02:13:02;;;;;;;7.78;5.45;;;;;;;24.49;51.97;100155.13;4976761;28;20050;-7
2021/07/12 02:15:37;;;;;;;7.90;4.70;;;;;;;24.66;51.00;100117.56;5016218;28;20424;-8
2021/07/12 02:18:21;;;;;;;8.07;5.50;;;;;;;24.69;48.38;100130.75;5016131;28;20120;-8
2021/07/12 02:20:49;;;;;;;6.45;5.07;;;;;;;24.87;50.45;100147.44;5015217;28;20053;-8
2021/07/12 02:23:17;;;;;;;8.18;5.20;;;;;;;24.98;48.67;100135.22;5016549;28;20406;-8
2021/07/12 02:25:52;;;;;;;6.03;4.97;;;;;;;25.20;49.77;100137.41;5016026;28;20042;-8
2021/07/12 02:28:20;;;;;;;6.65;5.47;;;;;;;25.17;49.83;100129.59;5014629;28;20042;-8
2021/07/12 02:30:47;;;;;;;7.78;5.20;;;;;;;25.13;48.92;100134.28;5015862;28;20129;-8
2021/07/12 02:33:18;;;;;;;9.57;5.60;;;;;;;24.91;48.77;100126.72;5015896;28;20057;-8
2021/07/12 02:35:47;;;;;;;7.22;5.15;;;;;;;25.05;49.77;100147.28;5014545;28;20426;-8
2021/07/12 02:38:13;;;;;;;7.15;4.65;;;;;;;25.02;49.26;100137.63;4998115;28;20534;-8
2021/07/12 02:40:41;;;;;;;7.80;5.25;;;;;;;25.10;49.57;100140.66;5014430;28;20052;-8
2021/07/12 02:43:09;;;;;;;8.13;5.38;;;;;;;24.83;48.99;100163.78;5030877;28;20124;-15
2021/07/12 02:45:39;;;;;;;10.45;5.72;;;;;;;24.33;51.04;100136.47;5015888;28;20454;-8
2021/07/12 02:48:06;;;;;;;7.93;5.65;;;;;;;24.36;49.96;100154.97;5015803;28;20076;-7
2021/07/12 02:50:38;;;;;;;7.10;5.30;;;;;;;24.31;51.30;100144.56;5014340;28;20530;-8
2021/07/12 02:53:35;;;;;;;7.68;5.57;;;;;;;24.28;51.11;100172.31;5015843;28;20100;-8
2021/07/12 02:56:02;;;;;;;6.97;5.03;;;;;;;24.34;51.33;100146.19;5005878;28;20056;-9
2021/07/12 02:58:32;;;;;;;6.72;5.43;;;;;;;24.01;50.56;100123.19;5031050;28;20038;-9
2021/07/12 03:00:58;;;;;;;5.80;5.13;;;;;;;24.36;51.36;100201.25;5014465;28;20077;-8
2021/07/12 03:03:27;;;;;;;8.25;5.90;;;;;;;23.93;52.68;100166.34;5014075;28;20049;-9
2021/07/12 03:06:06;;;;;;;10.38;6.32;;;;;;;23.45;51.86;100144.97;5015665;28;20037;-9
2021/07/12 03:08:59;;;;;;;7.20;5.57;;;;;;;23.49;51.84;100159.03;5014035;28;20050;-9
2021/07/12 03:11:35;;;;;;;7.55;6.25;;;;;;;23.29;52.18;100151.16;5013747;28;20474;-9
2021/07/12 03:14:20;;;;;;;11.70;6.65;;;;;;;23.31;52.58;100166.22;5014250;28;20042;-8
2021/07/12 03:16:50;;;;;;;11.90;6.95;;;;;;;23.20;52.49;100137.47;5015085;28;20121;-9
2021/07/12 03:19:30;;;;;;;9.85;5.50;;;;;;;23.34;52.58;100158.06;5015067;28;20041;-8
2021/07/12 03:22:00;;;;;;;9.45;5.70;;;;;;;23.14;52.87;100157.34;5015268;28;20042;-8
2021/07/12 03:24:32;;;;;;;11.57;5.80;;;;;;;23.13;52.86;100158.25;5015436;28;20133;-7
2021/07/12 03:27:00;;;;;;;9.75;5.70;;;;;;;23.31;51.94;100152.88;5014987;28;20554;-8
2021/07/12 03:29:30;;;;;;;8.13;5.65;;;;;;;23.13;51.72;100142.25;5013602;28;20476;-8
2021/07/12 03:32:02;;;;;;;10.73;5.82;;;;;;;23.34;51.59;100160.75;5014650;28;20523;-9
2021/07/12 03:34:33;;;;;;;9.85;5.68;;;;;;;23.27;52.20;100160.19;5013728;28;20077;-8
2021/07/12 03:37:01;;;;;;;9.75;5.60;;;;;;;23.12;52.31;100157.38;5014436;28;20461;-9
2021/07/12 03:39:29;;;;;;;11.77;5.70;;;;;;;23.25;52.35;100160.28;5013267;28;20049;-9
2021/07/12 03:41:57;;;;;;;7.97;5.65;;;;;;;23.06;52.12;100141.75;5013936;28;20045;-8
2021/07/12 03:44:25;;;;;;;9.73;5.57;;;;;;;23.28;52.24;100170.81;5013307;28;20046;-6
2021/07/12 03:46:52;;;;;;;8.20;6.05;;;;;;;23.29;53.86;100177.84;5014893;28;20046;-7
2021/07/12 03:49:21;;;;;;;11.65;6.00;;;;;;;23.21;52.30;100139.22;4997462;28;20041;-6
2021/07/12 03:51:51;;;;;;;8.20;5.63;;;;;;;23.23;52.29;100132.84;5013388;28;20050;-6
2021/07/12 03:54:18;;;;;;;8.70;5.80;;;;;;;23.76;51.78;100167.28;5014603;28;20054;-6
2021/07/12 03:56:44;;;;;;;10.75;6.57;;;;;;;23.98;51.05;100152.75;5014540;28;20030;-6
2021/07/12 03:59:11;;;;;;;11.52;5.30;;;;;;;23.74;50.91;100132.69;5013029;28;20037;-6
2021/07/12 04:01:37;;;;;;;7.97;5.85;;;;;;;23.77;51.47;100169.00;5014161;28;20061;-8
2021/07/12 04:04:04;;;;;;;8.23;4.88;;;;;;;23.89;52.90;100176.31;5014103;28;20045;-6
2021/07/12 04:06:30;;;;;;;8.80;6.07;;;;;;;23.97;51.64;100196.41;5011745;28;20530;-6
2021/07/12 04:08:58;;;;;;;7.63;5.60;;;;;;;23.86;52.09;100199.69;5012842;28;20056;-6
2021/07/12 04:11:30;;;;;;;7.43;5.32;;;;;;;23.55;52.04;100132.84;5014263;28;20045;-6
2021/07/12 04:13:57;;;;;;;8.23;6.00;;;;;;;24.13;51.59;100202.56;5014014;28;20057;-6
2021/07/12 04:16:23;;;;;;;10.20;5.40;;;;;;;23.56;51.49;100115.91;5013793;28;20395;-8
2021/07/12 04:18:49;;;;;;;10.10;5.80;;;;;;;23.83;52.65;100170.47;5014108;28;20495;-6
2021/07/12 04:21:15;;;;;;;13.35;6.10;;;;;;;23.45;51.76;100110.28;5012691;28;20406;-7
2021/07/12 04:23:41;;;;;;;9.07;5.80;;;;;;;23.74;52.51;100162.03;5013564;28;20124;-6
2021/07/12 04:26:07;;;;;;;10.20;5.70;;;;;;;23.89;52.53;100183.47;5013686;28;20121;-7
2021/07/12 04:28:34;;;;;;;10.52;6.00;;;;;;;23.93;52.54;100179.69;5013633;28;20526;-7
2021/07/12 04:31:00;;;;;;;6.80;5.20;;;;;;;24.03;53.10;100182.72;5013547;28;20049;-6
2021/07/12 04:33:27;;;;;;;11.85;6.18;;;;;;;24.04;52.68;100192.44;5013833;28;20050;-7
2021/07/12 04:35:54;;;;;;;8.07;5.28;;;;;;;24.22;52.96;100190.50;5013203;28;20092;-7
2021/07/12 04:38:20;;;;;;;9.98;5.80;;;;;;;24.25;51.52;100152.94;5013474;28;20034;-7
2021/07/12 04:40:46;;;;;;;11.27;6.18;;;;;;;24.34;51.70;100172.91;5013819;28;20042;-6
2021/07/12 04:43:13;;;;;;;10.05;5.30;;;;;;;24.41;52.45;100176.94;5013505;28;20052;-6
2021/07/12 04:45:40;;;;;;;6.90;4.72;;;;;;;24.72;51.82;100189.38;5013874;28;20069;-6
2021/07/12 04:48:06;;;;;;;11.65;6.07;;;;;;;24.64;51.46;100161.38;5013300;28;20112;-6
2021/07/12 04:50:34;;;;;;;8.77;5.85;;;;;;;24.66;51.22;100162.16;5013542;28;20095;-6
2021/07/12 04:53:00;;;;;;;5.90;4.55;;;;;;;24.66;51.47;100149.63;5012309;28;20145;-8
2021/07/12 04:55:26;;;;;;;8.07;5.90;;;;;;;24.91;50.81;100158.81;5013253;28;20100;-6
2021/07/12 04:57:54;;;;;;;8.50;5.80;;;;;;;24.93;50.30;100160.44;5012775;28;20125;-6
2021/07/12 05:00:20;;;;;;;10.00;5.85;;;;;;;24.92;50.45;100169.41;5013195;28;20042;-7
2021/07/12 05:02:46;;;;;;;9.95;6.30;;;;;;;24.53;51.09;100119.22;5013126;28;20041;-7
2021/07/12 05:05:14;;;;;;;8.20;5.88;;;;;;;24.64;50.29;100115.91;5013002;28;20566;-7
2021/07/12 05:07:40;;;;;;;13.15;6.28;;;;;;;24.79;50.97;100152.41;5013471;28;20045;-6
2021/07/12 05:10:09;;;;;;;9.65;5.05;;;;;;;24.77;51.22;100152.50;5013519;28;20042;-6
2021/07/12 05:12:35;;;;;;;7.15;5.72;;;;;;;24.73;51.12;100158.13;5013126;28;20049;-7
2021/07/12 05:15:01;;;;;;;10.85;6.28;;;;;;;24.77;51.47;100151.66;5013248;28;20423;-6
2021/07/12 05:17:27;;;;;;;10.48;5.78;;;;;;;24.87;50.56;100168.84;5012664;28;20050;-6
2021/07/12 05:19:53;;;;;;;7.22;4.80;;;;;;;25.15;50.69;100180.53;5013238;28;20449;-6
2021/07/12 05:22:22;;;;;;;10.88;6.20;;;;;;;25.10;50.47;100174.59;5011703;28;20630;-6
2021/07/12 05:24:49;;;;;;;6.53;5.40;;;;;;;25.23;50.21;100178.22;5012780;28;20033;-7
2021/07/12 05:27:16;;;;;;;8.43;5.65;;;;;;;25.38;49.07;100168.41;5012780;28;20127;-7
2021/07/12 05:29:42;;;;;;;9.50;5.85;;;;;;;25.43;49.80;100170.78;5012823;28;20038;-7
2021/07/12 05:32:08;;;;;;;8.98;5.57;;;;;;;25.52;47.84;100172.84;5013023;28;20464;-6
2021/07/12 05:34:34;;;;;;;10.00;5.38;;;;;;;25.50;47.45;100180.16;5012661;28;20041;-6
2021/07/12 05:37:00;;;;;;;8.95;5.53;;;;;;;25.67;47.07;100164.78;5012385;28;20549;-6
2021/07/12 05:39:29;;;;;;;8.48;5.05;;;;;;;25.65;46.51;100159.53;5012509;28;20058;-6
2021/07/12 05:41:55;;;;;;;8.23;5.53;;;;;;;25.81;46.25;100172.78;5012937;28;20510;-8
2021/07/12 05:44:21;;;;;;;9.52;5.60;;;;;;;25.79;46.70;100164.00;5011672;28;20443;-8
2021/07/12 05:46:47;;;;;;;9.57;5.70;;;;;;;25.84;46.75;100186.00;5013134;28;20136;-6
2021/07/12 05:49:14;;;;;;;8.30;5.55;;;;;;;25.75;47.30;100179.41;5012826;28;20046;-8
2021/07/12 05:51:40;;;;;;;9.88;5.75;;;;;;;25.91;47.13;100181.94;5012675;28;20034;-6
2021/07/12 05:54:06;;;;;;;12.10;5.68;;;;;;;26.10;46.51;100186.13;5013143;28;20046;-5
2021/07/12 05:56:32;;;;;;;11.35;5.47;;;;;;;26.02;46.22;100145.56;5012430;28;20044;-8
2021/07/12 05:58:58;;;;;;;6.13;5.35;;;;;;;26.35;45.84;100179.13;5012672;28;20521;-6
2021/07/12 06:01:24;;;;;;;9.10;5.75;;;;;;;26.31;47.35;100183.84;5012649;28;20046;-8
2021/07/12 06:03:50;;;;;;;7.45;5.22;;;;;;;26.48;47.27;100180.00;5012418;28;20552;-6
2021/07/12 06:06:17;;;;;;;7.85;5.60;;;;;;;26.53;46.78;100180.56;5012197;28;20038;-6
2021/07/12 06:08:43;;;;;;;10.98;8.20;;;;;;;26.40;45.49;100183.22;5012857;28;20045;-8
2021/07/12 06:11:09;;;;;;;7.72;5.63;;;;;;;26.45;45.55;100184.72;5012307;28;20042;-6
2021/07/12 06:13:37;;;;;;;7.57;6.20;;;;;;;26.46;45.49;100183.75;5012373;28;20088;-8
2021/07/12 06:16:03;;;;;;;7.20;5.10;;;;;;;26.53;44.81;100169.84;5011213;28;20431;-7
2021/07/12 06:18:30;;;;;;;9.98;5.38;;;;;;;26.71;43.08;100188.28;5011014;28;20042;-6
2021/07/12 06:20:56;;;;;;;9.88;5.13;;;;;;;26.64;44.84;100176.28;5010886;28;20038;-6
2021/07/12 06:23:22;;;;;;;7.93;5.38;;;;;;;26.64;43.78;100173.59;5012177;28;20053;-7
2021/07/12 06:25:49;;;;;;;13.10;4.75;;;;;;;26.66;43.60;100155.56;5012072;28;20124;-6
2021/07/12 06:28:15;;;;;;;6.53;4.30;;;;;;;26.72;42.36;100161.41;5012102;28;20037;-7
2021/07/12 06:30:41;;;;;;;8.00;4.88;;;;;;;27.01;42.47;100188.03;5013018;28;20041;-7
2021/07/12 06:33:07;;;;;;;7.95;5.10;;;;;;;27.13;43.60;100175.56;5014404;28;20049;-7
2021/07/12 06:35:33;;;;;;;7.80;4.88;;;;;;;27.16;43.46;100175.34;5015660;28;20041;-6
2021/07/12 06:37:59;;;;;;;5.63;4.53;;;;;;;27.22;41.74;100176.72;5015440;28;20077;-8
2021/07/12 06:40:26;;;;;;;16.38;5.88;;;;;;;27.27;41.46;100179.94;5015649;28;20041;-6
2021/07/12 06:42:52;;;;;;;8.05;5.35;;;;;;;27.41;42.90;100173.63;5015889;28;20434;-7
2021/07/12 06:45:19;;;;;;;12.13;5.32;;;;;;;27.54;42.26;100184.34;5015532;28;20426;-7
2021/07/12 06:47:48;;;;;;;8.25;4.70;;;;;;;27.47;40.17;100181.25;5015568;28;20077;-7
2021/07/12 06:50:16;;;;;;;8.20;5.10;;;;;;;27.56;41.27;100185.94;5014260;28;20065;-7
2021/07/12 06:52:42;;;;;;;15.50;6.18;;;;;;;27.58;42.69;100184.97;5015496;28;20056;-7
2021/07/12 06:55:09;;;;;;;7.22;5.53;;;;;;;27.58;42.48;100168.88;5015723;28;20065;-8
2021/07/12 06:57:35;;;;;;;8.38;5.50;;;;;;;27.75;40.52;100173.84;5015578;28;20486;-7
2021/07/12 07:00:01;;;;;;;7.82;5.28;;;;;;;27.71;41.00;100181.25;5015275;28;20419;-6
2021/07/12 07:02:27;;;;;;;10.23;5.18;;;;;;;27.76;40.83;100191.69;5014884;28;20049;-7
2021/07/12 07:05:05;;;;;;;11.55;5.55;;;;;;;27.82;41.20;100183.19;5013100;28;20518;-6
2021/07/12 07:07:32;;;;;;;8.93;5.32;;;;;;;27.66;42.03;100174.53;5014165;28;20070;-7
2021/07/12 07:09:58;;;;;;;12.10;6.00;;;;;;;27.67;41.78;100187.84;5036570;28;20091;-7
2021/07/12 07:12:25;;;;;;;9.80;5.60;;;;;;;27.50;41.90;100143.41;5015108;28;20048;-6
2021/07/12 07:14:52;;;;;;;10.27;5.13;;;;;;;27.67;41.17;100152.06;5014844;28;20458;-7
2021/07/12 07:17:18;;;;;;;7.28;5.57;;;;;;;27.87;39.63;100182.81;5013806;28;20044;-6
2021/07/12 07:19:44;;;;;;;6.95;4.40;;;;;;;27.96;38.52;100189.34;5014991;28;20038;-8
2021/07/12 07:22:11;;;;;;;6.15;4.93;;;;;;;27.69;39.09;100195.78;5015343;28;20487;-7
2021/07/12 07:24:47;;;;;;;8.27;4.88;;;;;;;27.76;39.08;100177.41;5013792;28;20495;-7
2021/07/12 07:27:17;;;;;;;8.18;4.50;;;;;;;27.95;38.68;100190.31;5014839;28;20438;-7
2021/07/12 07:29:47;;;;;;;8.30;5.70;;;;;;;28.13;38.58;100191.66;4997067;28;20052;-6
2021/07/12 07:32:15;;;;;;;8.07;6.25;;;;;;;28.19;38.71;100191.19;5014800;28;20077;-7
2021/07/12 07:34:44;;;;;;;10.30;7.72;;;;;;;28.03;39.30;100159.25;5014533;28;20072;-7
2021/07/12 07:37:11;;;;;;;9.52;5.97;;;;;;;28.30;40.43;100184.16;5014613;28;20050;-8
2021/07/12 07:39:40;;;;;;;8.23;5.72;;;;;;;28.30;39.04;100184.16;5014614;28;20046;-7
2021/07/12 07:42:06;;;;;;;9.15;7.03;;;;;;;28.25;38.64;100186.34;5014786;28;20103;-7
2021/07/12 07:44:32;;;;;;;10.35;7.20;;;;;;;28.22;39.14;100176.66;5014943;28;20406;-6
2021/07/12 07:46:59;;;;;;;10.32;6.45;;;;;;;28.38;39.55;100192.47;5014360;28;20049;-7
2021/07/12 07:49:25;;;;;;;6.90;5.57;;;;;;;28.50;40.67;100183.50;5014691;28;20132;-7
2021/07/12 07:51:51;;;;;;;7.43;4.82;;;;;;;28.31;38.20;100143.72;5014415;28;20123;-7
2021/07/12 07:54:17;;;;;;;6.68;5.03;;;;;;;28.35;38.63;100157.78;5012998;28;20050;-7
2021/07/12 07:56:44;;;;;;;7.75;5.00;;;;;;;28.53;37.75;100185.09;5014146;28;20125;-7
2021/07/12 07:59:10;;;;;;;6.70;5.00;;;;;;;28.63;39.69;100185.22;5012813;28;20071;-7
2021/07/12 08:01:38;;;;;;;7.53;4.75;;;;;;;28.59;39.50;100167.63;5014160;28;20041;-7
2021/07/12 08:04:06;;;;;;;7.57;5.40;;;;;;;28.65;39.92;100178.78;5014062;28;20465;-6
2021/07/12 08:06:32;;;;;;;9.32;5.70;;;;;;;28.84;38.65;100180.91;5025296;28;20068;-7
2021/07/12 08:08:58;;;;;;;7.38;6.60;;;;;;;28.89;38.37;100172.50;5032884;28;20072;-7
2021/07/12 08:11:25;;;;;;;8.63;7.03;;;;;;;28.90;37.78;100178.72;5032636;28;20029;-7
2021/07/12 08:13:52;;;;;;;12.48;7.60;;;;;;;28.76;37.88;100139.44;5033530;28;20404;-8
2021/07/12 08:16:18;;;;;;;22.65;16.35;;;;;;;28.98;37.92;100177.16;5033481;28;20041;-7
2021/07/12 08:18:44;;;;;;;15.95;10.80;;;;;;;28.92;38.56;100171.41;5033614;28;20048;-8
2021/07/12 08:21:13;;;;;;;17.90;12.07;;;;;;;29.11;38.20;100177.03;5031667;28;20052;-7
2021/07/12 08:23:41;;;;;;;12.38;7.97;;;;;;;29.19;37.80;100171.00;5019338;28;20054;-7
2021/07/12 08:26:12;;;;;;;7.57;6.30;;;;;;;29.07;37.94;100180.91;5022760;28;20809;-7
2021/07/12 08:28:40;;;;;;;8.75;5.65;;;;;;;28.86;38.43;100152.06;5020093;28;20399;-7
2021/07/12 08:31:06;;;;;;;13.30;5.82;;;;;;;29.10;38.15;100164.56;5033395;28;20041;-8
2021/07/12 08:33:34;;;;;;;7.95;5.50;;;;;;;28.60;38.85;100161.28;5033566;28;20037;-8
2021/07/12 08:36:00;;;;;;;8.20;5.75;;;;;;;28.61;39.65;100163.84;5033275;28;20048;-8
2021/07/12 08:38:26;;;;;;;15.73;6.50;;;;;;;28.93;37.85;100156.94;5033177;28;20563;-7
2021/07/12 08:40:57;;;;;;;7.82;5.50;;;;;;;29.29;36.69;100157.72;5033092;28;20044;-7
2021/07/12 08:43:23;;;;;;;8.20;5.82;;;;;;;29.43;36.28;100152.06;5032118;28;20037;-6
2021/07/12 08:45:50;;;;;;;7.50;5.75;;;;;;;29.26;37.17;100128.31;5032990;28;20045;-6
2021/07/12 08:48:17;;;;;;;6.70;5.95;;;;;;;29.38;36.86;100140.81;5031442;28;20037;-6
2021/07/12 08:50:45;;;;;;;6.03;5.32;;;;;;;29.46;36.93;100151.81;5032077;28;20060;-7
2021/07/12 08:53:15;;;;;;;10.18;5.75;;;;;;;29.33;37.89;100148.41;5032093;28;20079;-6
2021/07/12 08:55:45;;;;;;;10.02;6.18;;;;;;;29.29;37.98;100131.63;5031600;28;20048;-7
2021/07/12 08:58:18;;;;;;;6.93;6.05;;;;;;;29.35;37.59;100119.53;5032592;28;20061;-7
2021/07/12 09:01:00;;;;;;;8.88;5.70;;;;;;;29.78;37.69;100134.84;5032798;28;20045;-7
2021/07/12 09:03:29;;;;;;;10.77;6.15;;;;;;;29.99;36.14;100140.31;5032665;28;20125;-8
2021/07/12 09:06:12;;;;;;;9.18;5.70;;;;;;;30.12;33.94;100147.38;5032890;28;20037;-7
2021/07/12 09:09:02;;;;;;;7.07;4.40;;;;;;;30.22;32.07;100142.06;5032233;28;20131;-8
2021/07/12 09:11:43;;;;;;;5.30;4.22;;;;;;;30.08;31.30;100148.59;5031820;28;20060;-8
2021/07/12 09:14:13;;;;;;;6.43;4.95;;;;;;;30.03;31.71;100124.75;5030154;28;20045;-8
2021/07/12 09:16:54;;;;;;;6.95;5.32;;;;;;;29.65;32.65;100124.22;5029541;28;20077;-6
2021/07/12 09:19:25;;;;;;;5.88;5.28;;;;;;;29.70;33.46;100137.34;5029160;28;20053;-8
2021/07/12 09:21:56;;;;;;;8.20;5.75;;;;;;;29.69;34.27;100127.53;5032841;28;20038;-8
2021/07/12 09:24:45;;;;;;;10.90;5.68;;;;;;;29.74;33.64;100135.22;5032887;28;20103;-7
2021/07/12 09:27:19;;;;;;;6.63;5.15;;;;;;;29.88;33.26;100132.25;5032132;28;20037;-7
2021/07/12 09:29:47;;;;;;;;;;;;;;;29.57;33.33;100099.78;5033163;28;20049;-7
2021/07/12 09:32:20;;;;;;;7.30;5.20;;;;;;;29.89;33.48;100136.66;5031092;28;19917;-7
2021/07/12 09:34:47;;;;;;;8.10;5.28;;;;;;;30.04;34.70;100139.94;5032375;28;20041;-8
2021/07/12 09:37:18;;;;;;;6.05;5.43;;;;;;;30.06;32.27;100132.56;5030263;28;20064;-6
2021/07/12 09:39:47;;;;;;;6.43;4.80;;;;;;;30.07;31.24;100131.59;5031541;28;20033;-7
2021/07/12 09:42:18;;;;;;;8.30;5.32;;;;;;;30.43;33.17;100142.94;5031602;28;20068;-7
2021/07/12 09:44:47;;;;;;;7.22;5.25;;;;;;;30.41;31.84;100142.19;5032407;28;20044;-7
2021/07/12 09:47:22;;;;;;;10.73;5.38;;;;;;;30.58;34.90;100129.13;5030873;28;20943;-7
2021/07/12 09:49:59;;;;;;;7.35;5.32;;;;;;;30.21;30.92;100076.50;5024384;28;20789;-7
2021/07/12 09:52:26;;;;;;;6.25;4.85;;;;;;;30.27;31.53;100102.94;5014135;28;20042;-8
2021/07/12 09:54:52;;;;;;;6.95;5.25;;;;;;;30.39;34.76;100119.91;5012241;28;20046;-7
2021/07/12 09:57:23;;;;;;;7.15;5.47;;;;;;;30.46;34.72;100141.81;5010991;28;20144;-7
2021/07/12 09:59:56;;;;;;;;;;;;;;;30.49;30.94;100123.56;5012371;28;20404;-8
2021/07/12 10:02:26;;;;;;;10.73;5.18;;;;;;;30.25;33.92;100125.63;5010915;28;20016;-7
2021/07/12 10:05:02;;;;;;;8.35;6.30;;;;;;;30.45;32.30;100132.00;5019925;28;20483;-7
2021/07/12 10:07:29;;;;;;;7.78;5.32;;;;;;;30.96;30.85;100114.13;5035773;28;20049;-6
2021/07/12 10:09:56;;;;;;;7.40;5.95;;;;;;;31.04;30.83;100130.47;5036123;28;20135;-7
2021/07/12 10:12:23;;;;;;;7.38;5.22;;;;;;;31.04;30.72;100127.78;5018331;28;20046;-7
2021/07/12 10:14:51;;;;;;;5.80;5.22;;;;;;;31.15;31.09;100119.63;5030839;28;20477;-6
2021/07/12 10:17:20;;;;;;;7.32;4.90;;;;;;;31.07;30.92;100105.97;5035881;28;20034;-7
2021/07/12 10:19:46;;;;;;;8.85;5.18;;;;;;;30.84;34.32;100111.50;5035823;28;20463;-7
2021/07/12 10:22:16;;;;;;;6.70;6.00;;;;;;;31.08;31.40;100118.47;5035629;28;20048;-6
2021/07/12 10:24:46;;;;;;;7.82;5.43;;;;;;;30.88;31.03;100101.31;5034594;28;20049;-8
2021/07/12 10:27:32;;;;;;;7.00;5.10;;;;;;;31.00;30.48;100116.44;5035449;28;20037;-7
2021/07/12 10:30:21;;;;;;;6.35;5.18;;;;;;;31.21;30.71;100107.44;5033905;28;20099;-7
2021/07/12 10:32:56;;;;;;;5.63;4.72;;;;;;;31.11;34.06;100106.56;5034046;28;20037;-7
2021/07/12 10:35:52;;;;;;;6.07;5.47;;;;;;;31.37;31.06;100100.63;5034437;28;20402;-7
2021/07/12 10:38:37;;;;;;;7.97;5.28;;;;;;;31.39;31.13;100091.41;5035728;28;20057;-7
2021/07/12 10:41:18;;;;;;;6.95;5.50;;;;;;;31.04;34.15;100060.28;5021907;28;20046;-7
2021/07/12 10:43:55;;;;;;;;;;;;;;;31.46;31.14;100088.97;5020699;28;20100;-7
2021/07/12 10:46:27;;;;;;;8.35;5.00;;;;;;;31.37;30.99;100092.53;5015711;28;20278;-7
2021/07/12 10:48:57;;;;;;;8.98;4.32;;;;;;;31.18;35.20;100092.38;5014322;28;20037;-7
2021/07/12 10:51:34;;;;;;;9.00;5.63;;;;;;;31.31;34.92;100096.66;5014998;28;20455;-7
2021/07/12 10:54:11;;;;;;;12.15;4.78;;;;;;;31.24;35.05;100092.78;5015846;28;20116;-7
2021/07/12 10:57:04;;;;;;;10.20;4.20;;;;;;;31.14;32.03;100073.88;5029158;28;20053;-8
2021/07/12 10:59:44;;;;;;;6.28;5.38;;;;;;;31.22;30.89;100073.19;5015362;28;20570;-7
2021/07/12 11:02:16;;;;;;;9.57;5.00;;;;;;;31.54;30.39;100091.00;5020538;28;20045;-9
2021/07/12 11:04:55;;;;;;;6.95;4.65;;;;;;;31.60;33.33;100085.91;5033104;28;20049;-7
2021/07/12 11:07:42;;;;;;;14.48;5.07;;;;;;;31.45;34.64;100080.03;5034971;28;20045;-7
2021/07/12 11:10:38;;;;;;;11.23;4.40;;;;;;;31.59;34.15;100086.03;5034339;28;20405;-7
2021/07/12 11:13:05;;;;;;;11.15;4.90;;;;;;;31.64;33.96;100081.09;5034498;28;20042;-9
2021/07/12 11:15:39;;;;;;;7.75;6.15;;;;;;;31.78;30.59;100091.47;5033762;28;20037;-9
2021/07/12 11:18:27;;;;;;;9.25;4.78;;;;;;;31.89;30.31;100087.78;5035066;28;20045;-8
2021/07/12 11:20:58;;;;;;;13.35;10.50;;;;;;;31.73;29.94;100068.56;5034864;28;20037;-7
2021/07/12 11:23:38;;;;;;;10.43;6.55;;;;;;;31.69;33.00;100084.22;5034941;28;20045;-7
2021/07/12 11:26:26;;;;;;;10.38;5.63;;;;;;;31.64;30.43;100081.09;5034792;28;20072;-7
2021/07/12 11:28:56;;;;;;;8.57;5.45;;;;;;;31.41;31.09;100065.09;5034212;28;20041;-7
2021/07/12 11:31:40;;;;;;;12.05;5.93;;;;;;;31.57;30.74;100079.91;5034797;28;20045;-7
2021/07/12 11:34:17;;;;;;;9.73;5.55;;;;;;;31.35;34.47;100079.16;5012854;28;20048;-23
2021/07/12 11:36:56;;;;;;;9.52;6.47;;;;;;;31.31;32.36;100072.34;5025045;28;20054;-9
2021/07/12 11:39:26;;;;;;;10.25;6.40;;;;;;;31.22;31.43;100076.72;5049135;28;20041;-8
2021/07/12 11:41:53;;;;;;;8.30;5.53;;;;;;;31.18;34.90;100072.59;5038610;28;20049;-7
2021/07/12 11:44:20;;;;;;;9.98;7.88;;;;;;;31.28;31.65;100081.56;5034351;28;20405;-8
2021/07/12 11:46:51;;;;;;;11.55;9.20;;;;;;;31.54;30.23;100069.38;5031089;28;20045;-7
2021/07/12 11:49:25;;;;;;;10.52;6.55;;;;;;;31.41;33.90;100035.41;5022722;28;20095;-9